createdAt,value
2023-04-15T00:00:55.893Z,96564.25
2023-04-15T00:03:06.798Z,96559.53
2023-04-15T00:05:14.823Z,96563.22
2023-04-15T00:07:22.731Z,96566.03
2023-04-15T00:09:30.957Z,96559.63
2023-04-15T00:11:38.856Z,96554.94
2023-04-15T00:13:47.517Z,96556.28
2023-04-15T00:15:55.403Z,96559.06
2023-04-15T00:18:03.403Z,96558.16
2023-04-15T00:20:15.927Z,96555.78
2023-04-15T00:22:24.094Z,96552.88
2023-04-15T00:24:32.904Z,96564.19
2023-04-15T00:26:40.835Z,96554.31
2023-04-15T00:28:49.277Z,96551.78
2023-04-15T00:30:57.987Z,96545.88
2023-04-15T00:33:07.010Z,96547.78
2023-04-15T00:35:17.716Z,96550.59
2023-04-15T00:37:25.856Z,96553.50
2023-04-15T00:39:34.410Z,96549.91
2023-04-15T00:41:43.131Z,96547.25
2023-04-15T00:43:51.122Z,96542.41
2023-04-15T00:46:02.657Z,96537.53
2023-04-15T00:48:11.791Z,96544.00
2023-04-15T00:50:22.321Z,96535.63
2023-04-15T00:52:30.315Z,96537.56
2023-04-15T00:54:38.877Z,96535.94
2023-04-15T00:56:47.324Z,96536.88
2023-04-15T00:58:55.471Z,96534.25
2023-04-15T01:01:04.597Z,96535.44
2023-04-15T01:03:12.666Z,96538.25
2023-04-15T01:05:23.954Z,96537.16
2023-04-15T01:07:32.110Z,96545.84
2023-04-15T01:09:40.453Z,96541.19
2023-04-15T01:11:49.159Z,96544.91
2023-04-15T01:13:59.466Z,96545.91
2023-04-15T01:16:09.030Z,96542.28
2023-04-15T01:18:17.936Z,96540.88
2023-04-15T01:20:29.258Z,96538.59
2023-04-15T01:22:38.651Z,96541.72
2023-04-15T01:24:57.252Z,96537.63
2023-04-15T01:27:07.977Z,96535.50
2023-04-15T01:29:17.458Z,96538.81
2023-04-15T01:31:25.636Z,96541.25
2023-04-15T01:33:33.638Z,96541.34
2023-04-15T01:35:44.537Z,96541.72
2023-04-15T01:37:52.909Z,96540.44
2023-04-15T01:40:01.294Z,96534.84
2023-04-15T01:42:12.137Z,96531.91
2023-04-15T01:44:20.135Z,96533.41
2023-04-15T01:46:28.081Z,96535.03
2023-04-15T01:48:36.207Z,96533.34
2023-04-15T01:50:45.032Z,96536.56
2023-04-15T01:52:53.000Z,96536.38
2023-04-15T01:55:01.317Z,96536.47
2023-04-15T01:57:12.032Z,96539.25
2023-04-15T01:59:20.298Z,96534.19
2023-04-15T02:01:28.442Z,96527.72
2023-04-15T02:03:37.501Z,96523.91
2023-04-15T02:05:45.714Z,96526.78
2023-04-15T02:07:53.999Z,96527.47
2023-04-15T02:10:02.093Z,96519.06
2023-04-15T02:12:13.581Z,96531.72
2023-04-15T02:14:21.717Z,96536.81
2023-04-15T02:16:29.981Z,96531.31
2023-04-15T02:18:37.990Z,96521.44
2023-04-15T02:20:47.279Z,96522.81
2023-04-15T02:22:55.434Z,96527.88
2023-04-15T02:25:03.614Z,96527.88
2023-04-15T02:27:19.282Z,96520.94
2023-04-15T02:29:27.451Z,96524.06
2023-04-15T02:31:46.760Z,96529.56
2023-04-15T02:33:55.347Z,96527.03
2023-04-15T02:36:03.361Z,96527.19
2023-04-15T02:38:11.693Z,96518.06
2023-04-15T02:40:19.694Z,96526.19
2023-04-15T02:42:30.706Z,96524.06
2023-04-15T02:44:40.870Z,96516.50
2023-04-15T02:46:52.876Z,96520.81
2023-04-15T02:49:03.615Z,96519.59
2023-04-15T02:51:16.121Z,96512.81
2023-04-15T02:53:24.354Z,96515.50
2023-04-15T02:55:32.352Z,96510.59
2023-04-15T02:57:42.921Z,96505.59
2023-04-15T02:59:52.362Z,96497.63
2023-04-15T03:02:01.326Z,96508.34
2023-04-15T03:04:10.063Z,96510.03
2023-04-15T03:06:18.582Z,96508.66
2023-04-15T03:08:26.907Z,96511.13
2023-04-15T03:10:38.269Z,96518.94
2023-04-15T03:12:48.745Z,96519.69
2023-04-15T03:15:02.389Z,96531.53
2023-04-15T03:17:16.714Z,96519.34
2023-04-15T03:19:26.274Z,96521.81
2023-04-15T03:21:34.214Z,96518.34
2023-04-15T03:23:42.103Z,96520.47
2023-04-15T03:25:50.591Z,96515.06
2023-04-15T03:28:02.949Z,96516.28
2023-04-15T03:30:12.648Z,96524.06
2023-04-15T03:32:21.960Z,96517.44
2023-04-15T03:34:29.884Z,96523.88
2023-04-15T03:36:38.479Z,96523.78
2023-04-15T03:38:47.197Z,96522.34
2023-04-15T03:40:55.329Z,96522.91
2023-04-15T03:43:05.992Z,96520.19
2023-04-15T03:45:14.852Z,96524.59
2023-04-15T03:47:22.685Z,96523.75
2023-04-15T03:49:31.030Z,96528.25
2023-04-15T03:51:39.261Z,96517.47
2023-04-15T03:53:47.443Z,96518.56
2023-04-15T03:55:55.578Z,96512.69
2023-04-15T03:58:06.002Z,96517.34
2023-04-15T04:00:15.928Z,96517.66
2023-04-15T04:02:24.509Z,96519.16
2023-04-15T04:04:33.127Z,96514.19
2023-04-15T04:06:41.160Z,96523.28
2023-04-15T04:08:49.025Z,96519.97
2023-04-15T04:10:57.185Z,96525.66
2023-04-15T04:13:08.007Z,96526.31
2023-04-15T04:15:16.154Z,96516.81
2023-04-15T04:17:24.385Z,96518.81
2023-04-15T04:19:32.506Z,96519.84
2023-04-15T04:21:40.929Z,96529.75
2023-04-15T04:23:49.487Z,96525.69
2023-04-15T04:25:57.974Z,96534.31
2023-04-15T04:28:08.789Z,96533.00
2023-04-15T04:30:17.677Z,96533.16
2023-04-15T04:32:26.260Z,96526.00
2023-04-15T04:34:34.146Z,96527.53
2023-04-15T04:36:42.369Z,96542.19
2023-04-15T04:38:50.432Z,96536.84
2023-04-15T04:40:58.689Z,96538.09
2023-04-15T04:43:09.714Z,96535.41
2023-04-15T04:45:17.661Z,96537.25
2023-04-15T04:47:26.039Z,96531.84
2023-04-15T04:49:34.154Z,96538.78
2023-04-15T04:51:42.309Z,96538.78
2023-04-15T04:53:50.387Z,96539.72
2023-04-15T04:55:58.489Z,96532.63
2023-04-15T04:58:09.375Z,96537.25
2023-04-15T05:00:20.810Z,96541.56
2023-04-15T05:02:29.116Z,96542.81
2023-04-15T05:04:37.380Z,96544.41
2023-04-15T05:06:45.394Z,96538.50
2023-04-15T05:08:53.707Z,96544.72
2023-04-15T05:11:01.734Z,96546.03
2023-04-15T05:13:12.597Z,96552.00
2023-04-15T05:15:20.608Z,96549.69
2023-04-15T05:17:32.151Z,96555.22
2023-04-15T05:19:40.139Z,96557.66
2023-04-15T05:21:48.299Z,96563.00
2023-04-15T05:23:56.642Z,96569.47
2023-04-15T05:26:04.516Z,96566.91
2023-04-15T05:28:15.833Z,96568.47
2023-04-15T05:30:23.718Z,96568.59
2023-04-15T05:32:31.637Z,96572.16
2023-04-15T05:34:39.750Z,96579.94
2023-04-15T05:36:47.622Z,96579.66
2023-04-15T05:38:55.784Z,96575.13
2023-04-15T05:41:03.891Z,96577.81
2023-04-15T05:43:14.516Z,96583.88
2023-04-15T05:45:22.658Z,96582.97
2023-04-15T05:47:30.722Z,96587.31
2023-04-15T05:49:39.068Z,96591.63
2023-04-15T05:51:47.400Z,96595.00
2023-04-15T05:53:55.275Z,96595.88
2023-04-15T05:56:03.085Z,96595.78
2023-04-15T05:58:11.956Z,96612.81
2023-04-15T06:00:23.068Z,96614.69
2023-04-15T06:02:31.746Z,96606.28
2023-04-15T06:04:41.015Z,96621.47
2023-04-15T06:06:49.159Z,96635.13
2023-04-15T06:08:57.707Z,96651.69
2023-04-15T06:11:06.295Z,96650.47
2023-04-15T06:13:14.341Z,96684.38
2023-04-15T06:15:24.879Z,96698.97
2023-04-15T06:17:32.952Z,96712.88
2023-04-15T06:19:41.092Z,96714.53
2023-04-15T06:21:49.213Z,96699.53
2023-04-15T06:23:57.233Z,96689.94
2023-04-15T06:26:05.293Z,96679.88
2023-04-15T06:28:13.362Z,96657.44
2023-04-15T06:30:23.928Z,96641.41
2023-04-15T06:32:35.535Z,96645.19
2023-04-15T06:34:43.563Z,96681.84
2023-04-15T06:36:54.966Z,96663.19
2023-04-15T06:39:03.986Z,96659.81
2023-04-15T06:41:12.478Z,96667.69
2023-04-15T06:43:20.457Z,96676.94
2023-04-15T06:45:28.565Z,96666.44
2023-04-15T06:47:41.095Z,96670.50
2023-04-15T06:49:48.960Z,96674.66
2023-04-15T06:51:56.975Z,96690.63
2023-04-15T06:54:06.271Z,96702.81
2023-04-15T06:56:14.395Z,96688.75
2023-04-15T06:58:22.300Z,96675.94
2023-04-15T07:00:34.019Z,96686.59
2023-04-15T07:02:44.970Z,96681.81
2023-04-15T07:04:53.075Z,96683.03
2023-04-15T07:07:02.880Z,96670.69
2023-04-15T07:09:10.915Z,96655.28
2023-04-15T07:11:18.883Z,96648.69
2023-04-15T07:13:27.293Z,96646.16
2023-04-15T07:15:35.146Z,96643.25
2023-04-15T07:17:46.139Z,96633.72
2023-04-15T07:19:54.335Z,96631.53
2023-04-15T07:22:02.499Z,96619.81
2023-04-15T07:24:10.749Z,96611.94
2023-04-15T07:26:18.770Z,96611.41
2023-04-15T07:28:26.889Z,96606.91
2023-04-15T07:30:36.065Z,96606.97
2023-04-15T07:32:46.900Z,96604.22
2023-04-15T07:34:55.189Z,96598.84
2023-04-15T07:37:03.780Z,96605.09
2023-04-15T07:39:12.242Z,96610.41
2023-04-15T07:41:20.676Z,96615.97
2023-04-15T07:43:28.734Z,96620.25
2023-04-15T07:45:36.774Z,96625.09
2023-04-15T07:47:47.575Z,96638.59
2023-04-15T07:49:56.287Z,96641.44
2023-04-15T07:52:06.174Z,96639.78
2023-04-15T07:54:14.330Z,96645.16
2023-04-15T07:56:22.531Z,96636.19
2023-04-15T07:58:30.619Z,96617.56
2023-04-15T08:00:38.726Z,96620.78
2023-04-15T08:02:50.152Z,96631.41
2023-04-15T08:04:58.368Z,96615.59
2023-04-15T08:07:07.333Z,96620.66
2023-04-15T08:09:15.549Z,96624.13
2023-04-15T08:11:23.629Z,96622.91
2023-04-15T08:13:31.758Z,96616.56
2023-04-15T08:15:39.860Z,96605.22
2023-04-15T08:17:50.739Z,96615.19
2023-04-15T08:19:58.950Z,96606.22
2023-04-15T08:22:06.975Z,96596.84
2023-04-15T08:24:23.441Z,96616.53
2023-04-15T08:26:31.435Z,96607.47
2023-04-15T08:28:41.260Z,96614.06
2023-04-15T08:30:49.386Z,96611.03
2023-04-15T08:33:00.138Z,96609.25
2023-04-15T08:35:09.564Z,96612.44
2023-04-15T08:37:17.505Z,96615.09
2023-04-15T08:39:25.430Z,96611.75
2023-04-15T08:41:43.318Z,96611.59
2023-04-15T08:43:56.434Z,96615.03
2023-04-15T08:46:05.771Z,96615.47
2023-04-15T08:48:19.570Z,96607.78
2023-04-15T08:50:29.582Z,96614.47
2023-04-15T08:52:37.682Z,96609.41
2023-04-15T08:54:45.671Z,96617.19
2023-04-15T08:56:53.947Z,96632.16
2023-04-15T08:59:02.754Z,96638.38
2023-04-15T09:01:10.834Z,96633.34
2023-04-15T09:03:23.132Z,96641.84
2023-04-15T09:05:34.186Z,96651.66
2023-04-15T09:07:42.248Z,96640.13
2023-04-15T09:09:51.910Z,96643.09
2023-04-15T09:11:59.837Z,96650.69
2023-04-15T09:14:07.841Z,96660.56
2023-04-15T09:16:16.885Z,96670.56
2023-04-15T09:18:35.128Z,96670.09
2023-04-15T09:20:44.669Z,96678.63
2023-04-15T09:22:53.517Z,96677.38
2023-04-15T09:25:01.700Z,96701.06
2023-04-15T09:27:10.502Z,96703.59
2023-04-15T09:29:18.919Z,96701.47
2023-04-15T09:31:33.314Z,96717.69
2023-04-15T09:33:58.265Z,96731.38
2023-04-15T09:36:08.218Z,96724.66
2023-04-15T09:38:16.805Z,96726.56
2023-04-15T09:40:38.401Z,96738.72
2023-04-15T09:42:58.993Z,96723.16
2023-04-15T09:45:14.281Z,96735.84
2023-04-15T09:47:32.608Z,96724.78
2023-04-15T09:49:59.304Z,96718.50
2023-04-15T09:52:08.007Z,96720.38
2023-04-15T09:54:16.181Z,96723.31
2023-04-15T09:56:26.122Z,96728.13
2023-04-15T09:58:37.284Z,96737.47
2023-04-15T10:00:45.372Z,96716.41
2023-04-15T10:02:54.450Z,96712.13
2023-04-15T10:05:06.269Z,96719.88
2023-04-15T10:07:15.153Z,96717.91
2023-04-15T10:09:23.716Z,96717.19
2023-04-15T10:11:33.180Z,96718.22
2023-04-15T10:13:42.445Z,96714.09
2023-04-15T10:15:54.632Z,96712.34
2023-04-15T10:18:04.357Z,96699.72
2023-04-15T10:20:17.996Z,96705.34
2023-04-15T10:22:27.552Z,96703.97
2023-04-15T10:24:37.564Z,96697.50
2023-04-15T10:26:46.248Z,96715.41
2023-04-15T10:28:57.281Z,96719.09
2023-04-15T10:31:07.914Z,96722.59
2023-04-15T10:33:17.514Z,96733.41
2023-04-15T10:35:28.743Z,96743.59
2023-04-15T10:37:39.608Z,96727.25
2023-04-15T10:39:48.109Z,96720.81
2023-04-15T10:42:10.074Z,96733.41
2023-04-15T10:44:17.992Z,96733.09
2023-04-15T10:46:37.939Z,96741.75
2023-04-15T10:48:51.821Z,96736.94
2023-04-15T10:51:05.340Z,96743.06
2023-04-15T10:53:14.338Z,96742.03
2023-04-15T10:55:24.581Z,96744.81
2023-04-15T10:57:38.290Z,96748.50
2023-04-15T11:00:06.943Z,96748.47
2023-04-15T11:02:17.865Z,96751.00
2023-04-15T11:04:57.757Z,96756.09
2023-04-15T11:07:11.340Z,96753.53
2023-04-15T11:09:35.114Z,96756.66
2023-04-15T11:12:11.335Z,96742.19
2023-04-15T11:14:19.683Z,96741.44
2023-04-15T11:16:27.861Z,96739.44
2023-04-15T11:18:38.171Z,96741.75
2023-04-15T11:20:48.213Z,96738.59
2023-04-15T11:23:14.745Z,96735.72
2023-04-15T11:25:27.075Z,96741.50
2023-04-15T11:27:35.055Z,96735.53
2023-04-15T11:29:42.917Z,96737.47
2023-04-15T11:31:51.818Z,96735.13
2023-04-15T11:34:01.878Z,96740.91
2023-04-15T11:36:14.738Z,96745.66
2023-04-15T11:38:25.599Z,96724.38
2023-04-15T11:40:34.203Z,96733.38
2023-04-15T11:42:49.615Z,96747.16
2023-04-15T11:45:10.488Z,96740.56
2023-04-15T11:47:27.719Z,96735.53
2023-04-15T11:49:38.605Z,96742.56
2023-04-15T11:51:46.631Z,96746.06
2023-04-15T11:53:57.478Z,96739.41
2023-04-15T11:56:05.546Z,96736.31
2023-04-15T11:58:16.437Z,96733.31
2023-04-15T12:00:25.213Z,96732.41
2023-04-15T12:02:35.043Z,96744.63
2023-04-15T12:04:43.339Z,96737.38
2023-04-15T12:06:55.311Z,96728.31
2023-04-15T12:09:10.500Z,96707.06
2023-04-15T12:11:18.804Z,96695.31
2023-04-15T12:13:27.034Z,96677.84
2023-04-15T12:15:35.086Z,96687.66
2023-04-15T12:17:51.816Z,96684.91
2023-04-15T12:20:00.288Z,96695.16
2023-04-15T12:22:11.738Z,96705.31
2023-04-15T12:24:25.016Z,96708.97
2023-04-15T12:26:34.630Z,96700.66
2023-04-15T12:28:43.990Z,96724.72
2023-04-15T12:30:53.875Z,96724.44
2023-04-15T12:33:03.269Z,96718.69
2023-04-15T12:35:11.864Z,96720.94
2023-04-15T12:37:20.207Z,96725.94
2023-04-15T12:39:32.833Z,96743.56
2023-04-15T12:41:41.215Z,96743.22
2023-04-15T12:43:49.636Z,96757.47
2023-04-15T12:46:00.155Z,96756.22
2023-04-15T12:48:09.542Z,96777.81
2023-04-15T12:50:18.698Z,96786.31
2023-04-15T12:52:26.847Z,96789.09
2023-04-15T12:54:40.053Z,96791.41
2023-04-15T12:56:50.097Z,96792.66
2023-04-15T12:58:58.628Z,96795.81
2023-04-15T13:01:06.792Z,96784.19
2023-04-15T13:03:15.246Z,96788.66
2023-04-15T13:05:23.565Z,96792.84
2023-04-15T13:07:31.742Z,96789.50
2023-04-15T13:09:42.951Z,96793.28
2023-04-15T13:11:51.482Z,96788.03
2023-04-15T13:13:59.676Z,96792.13
2023-04-15T13:16:08.814Z,96799.13
2023-04-15T13:18:16.866Z,96804.00
2023-04-15T13:20:24.946Z,96801.94
2023-04-15T13:22:33.204Z,96805.47
2023-04-15T13:24:43.858Z,96803.69
2023-04-15T13:26:52.363Z,96806.22
2023-04-15T13:29:00.810Z,96798.69
2023-04-15T13:31:09.180Z,96806.44
2023-04-15T13:33:17.202Z,96811.75
2023-04-15T13:35:25.185Z,96812.38
2023-04-15T13:37:34.087Z,96813.44
2023-04-15T13:39:44.707Z,96832.38
2023-04-15T13:41:53.140Z,96836.41
2023-04-15T13:44:01.682Z,96829.94
2023-04-15T13:46:09.716Z,96835.66
2023-04-15T13:48:17.835Z,96833.38
2023-04-15T13:50:26.065Z,96838.66
2023-04-15T13:52:34.663Z,96838.53
2023-04-15T13:54:45.271Z,96846.22
2023-04-15T13:56:54.073Z,96850.16
2023-04-15T13:59:06.818Z,96846.72
2023-04-15T14:01:14.875Z,96832.91
2023-04-15T14:03:22.973Z,96836.00
2023-04-15T14:05:31.394Z,96841.19
2023-04-15T14:07:39.436Z,96859.66
2023-04-15T14:09:50.840Z,96833.22
2023-04-15T14:12:00.254Z,96834.28
2023-04-15T14:14:09.835Z,96873.03
2023-04-15T14:16:17.968Z,96869.72
2023-04-15T14:18:26.116Z,96876.81
2023-04-15T14:20:34.058Z,96880.03
2023-04-15T14:22:43.062Z,96875.78
2023-04-15T14:24:54.986Z,96881.72
2023-04-15T14:27:03.731Z,96890.22
2023-04-15T14:29:11.692Z,96885.06
2023-04-15T14:31:20.175Z,96894.69
2023-04-15T14:33:30.069Z,96898.00
2023-04-15T14:35:38.200Z,96906.34
2023-04-15T14:37:47.334Z,96906.78
2023-04-15T14:39:57.964Z,96918.03
2023-04-15T14:42:06.640Z,96924.72
2023-04-15T14:44:14.750Z,96916.72
2023-04-15T14:46:22.806Z,96925.72
2023-04-15T14:48:31.010Z,96932.97
2023-04-15T14:50:39.083Z,96942.28
2023-04-15T14:52:47.220Z,96922.00
2023-04-15T14:54:57.737Z,96932.63
2023-04-15T14:57:05.937Z,96926.34
2023-04-15T14:59:13.830Z,96934.31
2023-04-15T15:01:22.022Z,96924.78
2023-04-15T15:03:30.241Z,96939.03
2023-04-15T15:05:39.269Z,96930.94
2023-04-15T15:07:47.489Z,96926.81
2023-04-15T15:09:58.275Z,96947.34
2023-04-15T15:12:06.242Z,96940.81
2023-04-15T15:14:14.186Z,96944.31
2023-04-15T15:16:22.568Z,96958.19
2023-04-15T15:18:31.424Z,96953.38
2023-04-15T15:20:39.422Z,96950.44
2023-04-15T15:22:47.461Z,96956.47
2023-04-15T15:24:59.381Z,96957.06
2023-04-15T15:27:07.360Z,96954.03
2023-04-15T15:29:16.702Z,96953.25
2023-04-15T15:31:24.901Z,96960.38
2023-04-15T15:33:32.990Z,96967.44
2023-04-15T15:35:41.217Z,96956.66
2023-04-15T15:37:49.548Z,96951.56
2023-04-15T15:40:01.057Z,96949.63
2023-04-15T15:42:09.670Z,96950.59
2023-04-15T15:44:17.693Z,96945.66
2023-04-15T15:46:25.771Z,96950.53
2023-04-15T15:48:34.153Z,96952.47
2023-04-15T15:50:42.504Z,96956.78
2023-04-15T15:52:50.600Z,96954.41
2023-04-15T15:55:02.216Z,96952.09
2023-04-15T15:57:10.501Z,96958.13
2023-04-15T15:59:18.518Z,96976.72
2023-04-15T16:01:26.700Z,96975.06
2023-04-15T16:03:34.854Z,96983.16
2023-04-15T16:05:42.894Z,96984.38
2023-04-15T16:07:50.878Z,96977.72
2023-04-15T16:10:01.464Z,96981.34
2023-04-15T16:12:09.684Z,96985.09
2023-04-15T16:14:17.762Z,96992.94
2023-04-15T16:16:26.120Z,96992.13
2023-04-15T16:18:36.887Z,96999.06
2023-04-15T16:20:45.060Z,97008.31
2023-04-15T16:22:53.370Z,97017.78
2023-04-15T16:25:05.024Z,97021.66
2023-04-15T16:27:16.326Z,97015.06
2023-04-15T16:29:25.297Z,97013.97
2023-04-15T16:31:34.847Z,97023.63
2023-04-15T16:33:42.897Z,97022.25
2023-04-15T16:35:50.902Z,97025.63
2023-04-15T16:37:59.061Z,97029.66
2023-04-15T16:40:11.574Z,97032.09
2023-04-15T16:42:19.790Z,97033.88
2023-04-15T16:44:28.113Z,97031.53
2023-04-15T16:46:38.116Z,97042.56
2023-04-15T16:48:49.492Z,97041.00
2023-04-15T16:50:57.741Z,97042.97
2023-04-15T16:53:05.849Z,97047.63
2023-04-15T16:55:16.394Z,97045.28
2023-04-15T16:57:24.599Z,97056.41
2023-04-15T16:59:35.449Z,97053.34
2023-04-15T17:01:43.745Z,97052.91
2023-04-15T17:03:53.478Z,97048.88
2023-04-15T17:06:03.437Z,97046.97
2023-04-15T17:08:17.327Z,97046.63
2023-04-15T17:10:28.228Z,97045.88
2023-04-15T17:12:36.239Z,97047.66
2023-04-15T17:14:44.343Z,97056.13
2023-04-15T17:16:52.637Z,97057.06
2023-04-15T17:19:00.616Z,97049.91
2023-04-15T17:21:08.927Z,97053.25
2023-04-15T17:23:17.307Z,97056.31
2023-04-15T17:25:28.303Z,97052.81
2023-04-15T17:27:36.289Z,97050.72
2023-04-15T17:29:44.306Z,97055.47
2023-04-15T17:31:52.326Z,97048.78
2023-04-15T17:34:09.322Z,97054.22
2023-04-15T17:36:18.379Z,97053.81
2023-04-15T17:38:26.683Z,97055.25
2023-04-15T17:40:37.548Z,97047.59
2023-04-15T17:42:46.273Z,97047.56
2023-04-15T17:44:54.383Z,97037.34
2023-04-15T17:47:02.479Z,97039.50
2023-04-15T17:49:10.577Z,97045.09
2023-04-15T17:51:18.495Z,97036.97
2023-04-15T17:53:26.655Z,97034.44
2023-04-15T17:55:38.638Z,97041.31
2023-04-15T17:57:48.426Z,97038.31
2023-04-15T17:59:58.648Z,97035.38
2023-04-15T18:02:07.087Z,97041.81
2023-04-15T18:04:15.448Z,97046.44
2023-04-15T18:06:23.750Z,97049.53
2023-04-15T18:08:32.159Z,97053.25
2023-04-15T18:10:42.965Z,97051.91
2023-04-15T18:12:51.301Z,97049.81
2023-04-15T18:14:59.131Z,97069.13
2023-04-15T18:17:07.558Z,97067.22
2023-04-15T18:19:15.649Z,97072.59
2023-04-15T18:21:24.492Z,97076.22
2023-04-15T18:23:32.726Z,97069.34
2023-04-15T18:25:43.837Z,97072.59
2023-04-15T18:27:52.159Z,97076.22
2023-04-15T18:30:00.167Z,97088.78
2023-04-15T18:32:08.380Z,97077.44
2023-04-15T18:34:16.446Z,97080.09
2023-04-15T18:36:24.469Z,97082.72
2023-04-15T18:38:32.618Z,97076.69
2023-04-15T18:40:43.348Z,97079.69
2023-04-15T18:42:52.681Z,97076.66
2023-04-15T18:45:00.779Z,97079.13
2023-04-15T18:47:09.136Z,97090.03
2023-04-15T18:49:17.245Z,97091.44
2023-04-15T18:51:25.169Z,97092.97
2023-04-15T18:53:33.230Z,97106.47
2023-04-15T18:55:45.045Z,97103.28
2023-04-15T18:57:54.235Z,97103.00
2023-04-15T19:00:05.359Z,97106.13
2023-04-15T19:02:13.621Z,97110.66
2023-04-15T19:04:21.674Z,97120.78
2023-04-15T19:06:29.790Z,97130.31
2023-04-15T19:08:37.751Z,97124.09
2023-04-15T19:10:48.855Z,97127.75
2023-04-15T19:12:56.808Z,97123.31
2023-04-15T19:15:05.211Z,97117.19
2023-04-15T19:17:13.274Z,97122.69
2023-04-15T19:19:21.226Z,97119.53
2023-04-15T19:21:30.352Z,97120.31
2023-04-15T19:23:38.525Z,97123.72
2023-04-15T19:25:49.217Z,97119.38
2023-04-15T19:27:58.914Z,97133.16
2023-04-15T19:30:09.533Z,97117.84
2023-04-15T19:32:17.654Z,97122.84
2023-04-15T19:34:26.127Z,97122.47
2023-04-15T19:36:34.942Z,97120.69
2023-04-15T19:38:42.977Z,97134.97
2023-04-15T19:40:53.549Z,97128.03
2023-04-15T19:43:01.552Z,97139.50
2023-04-15T19:45:10.761Z,97133.44
2023-04-15T19:47:19.566Z,97128.91
2023-04-15T19:49:28.624Z,97126.84
2023-04-15T19:51:36.699Z,97127.69
2023-04-15T19:53:44.925Z,97120.22
2023-04-15T19:55:56.718Z,97129.78
2023-04-15T19:58:12.752Z,97129.28
2023-04-15T20:00:21.139Z,97131.63
2023-04-15T20:02:29.306Z,97127.31
2023-04-15T20:04:37.344Z,97131.19
2023-04-15T20:06:47.371Z,97127.88
2023-04-15T20:08:55.299Z,97134.22
2023-04-15T20:11:06.053Z,97124.47
2023-04-15T20:13:17.697Z,97119.81
2023-04-15T20:15:25.776Z,97120.69
2023-04-15T20:17:35.869Z,97110.59
2023-04-15T20:19:44.064Z,97113.69
2023-04-15T20:21:52.714Z,97111.22
2023-04-15T20:24:00.773Z,97119.25
2023-04-15T20:26:11.491Z,97124.94
2023-04-15T20:28:20.045Z,97121.72
2023-04-15T20:30:29.093Z,97123.63
2023-04-15T20:32:38.816Z,97130.50
2023-04-15T20:34:47.030Z,97130.97
2023-04-15T20:36:55.022Z,97128.31
2023-04-15T20:39:03.823Z,97119.72
2023-04-15T20:41:14.772Z,97121.72
2023-04-15T20:43:22.818Z,97136.19
2023-04-15T20:45:31.000Z,97139.19
2023-04-15T20:47:39.164Z,97140.13
2023-04-15T20:49:47.592Z,97140.13
2023-04-15T20:51:55.933Z,97139.97
2023-04-15T20:54:03.955Z,97136.34
2023-04-15T20:56:14.525Z,97139.22
2023-04-15T20:58:22.542Z,97137.41
2023-04-15T21:00:31.304Z,97141.84
2023-04-15T21:02:39.751Z,97146.66
2023-04-15T21:04:47.669Z,97141.94
2023-04-15T21:06:55.632Z,97138.56
2023-04-15T21:09:03.806Z,97144.13
2023-04-15T21:11:24.275Z,97140.72
2023-04-15T21:13:42.904Z,97146.94
2023-04-15T21:15:53.491Z,97148.84
2023-04-15T21:18:01.613Z,97147.50
2023-04-15T21:20:11.632Z,97149.50
2023-04-15T21:22:19.559Z,97153.19
2023-04-15T21:24:28.209Z,97145.81
2023-04-15T21:26:39.018Z,97152.78
2023-04-15T21:28:47.093Z,97145.91
2023-04-15T21:30:54.968Z,97151.31
2023-04-15T21:33:03.144Z,97153.06
2023-04-15T21:35:12.543Z,97157.03
2023-04-15T21:37:20.515Z,97156.78
2023-04-15T21:39:28.418Z,97158.28
2023-04-15T21:41:39.596Z,97157.63
2023-04-15T21:43:47.818Z,97161.97
2023-04-15T21:46:23.352Z,97160.38
2023-04-15T21:48:27.479Z,97158.09
2023-04-15T21:50:35.448Z,97158.56
2023-04-15T21:52:43.322Z,97161.31
2023-04-15T21:54:51.309Z,97165.81
2023-04-15T21:57:02.056Z,97166.66
2023-04-15T21:59:10.263Z,97165.28
2023-04-15T22:01:18.278Z,97164.44
2023-04-15T22:03:26.922Z,97168.03
2023-04-15T22:05:35.036Z,97171.50
2023-04-15T22:07:43.038Z,97169.88
2023-04-15T22:09:50.896Z,97164.53
2023-04-15T22:12:02.320Z,97171.78
2023-04-15T22:14:12.168Z,97177.75
2023-04-15T22:16:20.338Z,97176.22
2023-04-15T22:18:28.409Z,97176.13
2023-04-15T22:20:39.567Z,97182.25
2023-04-15T22:22:49.191Z,97178.31
2023-04-15T22:25:02.322Z,97181.69
2023-04-15T22:27:12.772Z,97180.56
2023-04-15T22:29:20.682Z,97181.13
2023-04-15T22:31:28.810Z,97183.97
2023-04-15T22:33:37.012Z,97183.50
2023-04-15T22:35:45.132Z,97190.28
2023-04-15T22:37:53.101Z,97193.78
2023-04-15T22:40:02.038Z,97195.84
2023-04-15T22:42:12.822Z,97194.75
2023-04-15T22:44:20.932Z,97190.56
2023-04-15T22:46:29.505Z,97201.63
2023-04-15T22:48:38.045Z,97197.19
2023-04-15T22:50:47.346Z,97198.97
2023-04-15T22:52:57.892Z,97203.16
2023-04-15T22:55:05.916Z,97205.88
2023-04-15T22:57:16.346Z,97199.66
2023-04-15T22:59:24.538Z,97203.53
2023-04-15T23:01:32.887Z,97210.19
2023-04-15T23:03:57.536Z,97200.97
2023-04-15T23:06:09.428Z,97206.75
2023-04-15T23:08:17.461Z,97206.16
2023-04-15T23:10:26.138Z,97209.25
2023-04-15T23:12:36.902Z,97207.84
2023-04-15T23:14:44.862Z,97206.59
2023-04-15T23:16:52.948Z,97199.19
2023-04-15T23:19:01.095Z,97203.63
2023-04-15T23:21:10.705Z,97205.03
2023-04-15T23:23:18.843Z,97203.63
2023-04-15T23:25:27.334Z,97207.19
2023-04-15T23:27:38.633Z,97206.25
2023-04-15T23:29:46.839Z,97207.44
2023-04-15T23:31:54.745Z,97219.56
2023-04-15T23:34:03.392Z,97218.72
2023-04-15T23:36:11.372Z,97216.84
2023-04-15T23:38:19.243Z,97217.41
2023-04-15T23:40:28.435Z,97221.00
2023-04-15T23:42:39.144Z,97216.38
2023-04-15T23:44:47.092Z,97221.06
2023-04-15T23:46:55.387Z,97224.03
2023-04-15T23:49:03.766Z,97224.59
2023-04-15T23:51:12.066Z,97221.75
2023-04-15T23:53:20.415Z,97224.56
2023-04-15T23:55:28.327Z,97228.38
2023-04-15T23:57:39.012Z,97233.44
2023-04-15T23:59:46.978Z,97230.91
